Time;durP1;ratioP1;P1;durP2;ratioP2;P2;SDS_P1;SDS_P2;PMS_P1;PMS_P2;Temp;Humidity;BMP_temperature;BMP_pressure;BME280_temperature;BME280_humidity;BME280_pressure;Samples;Min_cycle;Max_cycle;Signal;HPM_P1;HPM_P2
2022/09/17 00:00:55;;;;;;;2.15;1.17;;;13.30;99.90;;;;;;5036090;28;20170;-81
2022/09/17 00:03:22;;;;;;;2.97;0.90;;;13.30;99.90;;;;;;5048291;28;20173;-81
2022/09/17 00:05:47;;;;;;;3.50;1.05;;;13.30;99.90;;;;;;5042146;28;20586;-81
2022/09/17 00:08:14;;;;;;;3.67;0.90;;;13.30;99.90;;;;;;5037971;28;20272;-81
2022/09/17 00:10:42;;;;;;;4.43;1.17;;;13.40;99.90;;;;;;5036519;28;20650;-81
2022/09/17 00:13:09;;;;;;;4.10;1.15;;;13.40;99.90;;;;;;5018177;28;20177;-81
2022/09/17 00:15:43;;;;;;;4.20;1.23;;;13.40;99.90;;;;;;5034285;28;20204;-81
2022/09/17 00:18:09;;;;;;;3.90;1.00;;;13.40;99.90;;;;;;5034500;28;20257;-82
2022/09/17 00:20:43;;;;;;;10.15;1.67;;;13.40;99.90;;;;;;5034032;28;20632;-81
2022/09/17 00:23:10;;;;;;;6.28;1.42;;;13.50;99.90;;;;;;5033932;28;20522;-81
2022/09/17 00:25:44;;;;;;;4.68;1.10;;;13.50;99.90;;;;;;5034044;28;20268;-82
2022/09/17 00:28:12;;;;;;;3.95;0.90;;;13.50;99.90;;;;;;5034246;28;20169;-82
2022/09/17 00:30:40;;;;;;;3.50;1.10;;;13.50;99.90;;;;;;5034067;28;20169;-81
2022/09/17 00:33:06;;;;;;;2.83;1.30;;;13.50;99.90;;;;;;5033930;28;20268;-82
2022/09/17 00:35:32;;;;;;;2.67;1.05;;;13.50;99.90;;;;;;5033826;28;20213;-83
2022/09/17 00:37:58;;;;;;;4.20;0.97;;;13.50;99.90;;;;;;5033849;28;20176;-83
2022/09/17 00:40:23;;;;;;;3.60;0.90;;;13.50;99.90;;;;;;5037778;28;20545;-83
2022/09/17 00:42:52;;;;;;;3.17;1.13;;;13.50;99.90;;;;;;5033565;28;20174;-83
2022/09/17 00:45:18;;;;;;;2.53;1.00;;;13.50;99.90;;;;;;5052054;28;20220;-83
2022/09/17 00:47:54;;;;;;;5.63;1.25;;;13.50;99.90;;;;;;5053487;28;20226;-83
2022/09/17 00:50:30;;;;;;;4.85;0.95;;;13.60;99.90;;;;;;5053290;28;20207;-82
2022/09/17 00:53:08;;;;;;;4.68;0.90;;;13.60;99.90;;;;;;5053436;28;20263;-82
2022/09/17 00:55:38;;;;;;;7.28;1.02;;;13.60;99.90;;;;;;5053309;28;20200;-83
2022/09/17 00:58:07;;;;;;;3.60;0.80;;;13.60;99.90;;;;;;5052157;28;20169;-82
2022/09/17 01:00:33;;;;;;;5.40;0.98;;;13.60;99.90;;;;;;5052924;28;20175;-82
2022/09/17 01:02:59;;;;;;;4.03;0.80;;;13.60;99.90;;;;;;5053128;28;20595;-83
2022/09/17 01:05:49;;;;;;;3.55;0.90;;;13.60;99.90;;;;;;5035241;28;20558;-83
2022/09/17 01:08:29;;;;;;;3.00;0.80;;;13.60;99.90;;;;;;5053101;28;20165;-83
2022/09/17 01:11:24;;;;;;;7.55;1.40;;;13.60;99.90;;;;;;5052867;28;20275;-82
2022/09/17 01:14:09;;;;;;;3.75;1.40;;;13.60;99.90;;;;;;5053265;28;20193;-83
2022/09/17 01:17:08;;;;;;;6.67;1.20;;;13.60;99.90;;;;;;5056791;28;20204;-83
2022/09/17 01:19:52;;;;;;;3.10;1.05;;;13.60;99.90;;;;;;5052763;28;20564;-83
2022/09/17 01:22:37;;;;;;;2.45;0.70;;;13.60;99.90;;;;;;5060643;28;20168;-82
2022/09/17 01:25:17;;;;;;;7.40;0.93;;;13.60;99.90;;;;;;5062325;28;20204;-82
2022/09/17 01:28:17;;;;;;;4.25;1.00;;;13.60;99.90;;;;;;5054570;28;20161;-82
2022/09/17 01:31:00;;;;;;;3.08;1.08;;;13.60;99.90;;;;;;5053653;28;20264;-82
2022/09/17 01:33:38;;;;;;;4.65;0.80;;;13.60;99.90;;;;;;5053521;28;20238;-82
2022/09/17 01:36:23;;;;;;;3.33;0.98;;;13.60;99.90;;;;;;5054365;28;20564;-81
2022/09/17 01:39:05;;;;;;;2.60;1.05;;;13.60;99.90;;;;;;5055114;28;20218;-81
2022/09/17 01:41:52;;;;;;;4.50;1.52;;;13.60;99.90;;;;;;5051586;28;20268;-82
2022/09/17 01:44:34;;;;;;;4.35;1.15;;;13.50;99.90;;;;;;5051892;28;20192;-82
2022/09/17 01:47:22;;;;;;;2.65;1.00;;;13.60;99.90;;;;;;5059252;28;20189;-82
2022/09/17 01:49:52;;;;;;;4.15;1.40;;;13.50;99.90;;;;;;5060393;28;20191;-83
2022/09/17 01:52:20;;;;;;;3.38;1.10;;;13.50;99.90;;;;;;5058631;28;20276;-82
2022/09/17 01:54:49;;;;;;;2.90;1.10;;;13.50;99.90;;;;;;5067139;28;20247;-82
2022/09/17 01:57:23;;;;;;;6.68;1.60;;;13.50;99.90;;;;;;5064210;28;20173;-81
2022/09/17 02:00:11;;;;;;;6.97;1.13;;;13.50;99.90;;;;;;5061801;28;20191;-82
2022/09/17 02:02:52;;;;;;;4.32;1.02;;;13.40;99.90;;;;;;5061407;28;20169;-82
2022/09/17 02:05:21;;;;;;;3.53;0.80;;;13.40;99.90;;;;;;5060989;28;20203;-82
2022/09/17 02:07:58;;;;;;;6.60;1.30;;;13.40;99.90;;;;;;5060827;28;20173;-82
2022/09/17 02:10:29;;;;;;;3.67;1.15;;;13.40;99.90;;;;;;5058797;28;20236;-82
2022/09/17 02:13:23;;;;;;;4.65;1.10;;;13.40;99.90;;;;;;5059305;28;20169;-82
2022/09/17 02:15:57;;;;;;;3.90;1.33;;;13.40;99.90;;;;;;5036954;28;20220;-83
2022/09/17 02:18:38;;;;;;;4.88;0.90;;;13.40;99.90;;;;;;5061824;28;20204;-82
2022/09/17 02:21:27;;;;;;;3.75;1.00;;;13.40;99.90;;;;;;5063301;28;20264;-82
2022/09/17 02:24:16;;;;;;;6.30;1.30;;;13.40;99.90;;;;;;5059248;28;20188;-82
2022/09/17 02:27:04;;;;;;;8.48;1.20;;;13.40;99.90;;;;;;5060755;28;20172;-82
2022/09/17 02:29:36;;;;;;;3.45;0.95;;;13.30;99.90;;;;;;5062738;28;20161;-82
2022/09/17 02:32:03;;;;;;;3.75;1.05;;;13.30;99.90;;;;;;5065105;28;20215;-82
2022/09/17 02:34:29;;;;;;;3.75;1.08;;;13.30;99.90;;;;;;5065173;28;20193;-81
2022/09/17 02:36:59;;;;;;;4.00;1.40;;;13.30;99.90;;;;;;5063693;28;20663;-82
2022/09/17 02:39:26;;;;;;;5.05;1.20;;;13.20;99.90;;;;;;5062318;28;20567;-82
2022/09/17 02:42:11;;;;;;;6.03;1.88;;;13.20;99.90;;;;;;5062005;28;20190;-82
2022/09/17 02:44:55;;;;;;;4.30;1.17;;;13.20;99.90;;;;;;5062608;28;20240;-82
2022/09/17 02:47:51;;;;;;;4.50;1.38;;;13.20;99.90;;;;;;5055507;28;20172;-82
2022/09/17 02:50:20;;;;;;;5.68;1.17;;;13.30;99.90;;;;;;5052336;28;20165;-83
2022/09/17 02:53:08;;;;;;;6.50;0.95;;;13.30;99.90;;;;;;5054439;28;20173;-82
2022/09/17 02:55:59;;;;;;;3.90;1.05;;;13.30;99.90;;;;;;5054480;28;20259;-82
2022/09/17 02:58:33;;;;;;;3.70;1.10;;;13.30;99.90;;;;;;5054567;28;20188;-82
2022/09/17 03:01:06;;;;;;;3.53;1.15;;;13.40;99.90;;;;;;5057432;28;20161;-83
2022/09/17 03:03:38;;;;;;;5.20;1.65;;;13.40;99.90;;;;;;5056978;28;20176;-83
2022/09/17 03:06:05;;;;;;;3.47;1.20;;;13.40;99.90;;;;;;5055492;28;20191;-82
2022/09/17 03:08:40;;;;;;;8.40;2.13;;;13.40;99.90;;;;;;5060449;28;20165;-82
2022/09/17 03:11:08;;;;;;;4.70;1.35;;;13.40;99.90;;;;;;5060404;28;20168;-82
2022/09/17 03:13:34;;;;;;;5.32;1.02;;;13.40;99.90;;;;;;5058161;28;20173;-83
2022/09/17 03:16:05;;;;;;;3.22;1.40;;;13.40;99.90;;;;;;5056375;28;20286;-84
2022/09/17 03:18:31;;;;;;;4.10;1.35;;;13.50;99.90;;;;;;5056043;28;20165;-83
2022/09/17 03:20:57;;;;;;;6.32;1.63;;;13.50;99.90;;;;;;5057869;28;20176;-83
2022/09/17 03:23:23;;;;;;;6.07;1.40;;;13.50;99.90;;;;;;5055723;28;20307;-83
2022/09/17 03:25:49;;;;;;;4.97;1.37;;;13.50;99.90;;;;;;5055218;28;20201;-82
2022/09/17 03:28:15;;;;;;;5.20;1.30;;;13.50;99.90;;;;;;5057179;28;20169;-83
2022/09/17 03:30:43;;;;;;;7.03;1.35;;;13.60;99.90;;;;;;5056711;28;20670;-82
2022/09/17 03:33:09;;;;;;;3.15;0.80;;;13.60;99.90;;;;;;5054125;28;20173;-83
2022/09/17 03:35:35;;;;;;;8.50;1.58;;;13.60;99.90;;;;;;5053896;28;20308;-83
2022/09/17 03:38:00;;;;;;;5.33;1.37;;;13.60;99.90;;;;;;5056773;28;20214;-82
2022/09/17 03:40:26;;;;;;;7.50;2.13;;;13.60;99.90;;;;;;5055157;28;20180;-82
2022/09/17 03:42:52;;;;;;;4.70;1.20;;;13.70;99.90;;;;;;5059227;28;20169;-82
2022/09/17 03:45:18;;;;;;;6.17;1.13;;;13.70;99.90;;;;;;5069172;28;20204;-82
2022/09/17 03:47:43;;;;;;;4.50;1.27;;;13.70;99.90;;;;;;5058180;28;20162;-82
2022/09/17 03:50:09;;;;;;;4.03;1.10;;;13.70;99.90;;;;;;5059905;28;20161;-83
2022/09/17 03:52:35;;;;;;;10.10;1.77;;;13.70;99.90;;;;;;5055085;28;20212;-82
2022/09/17 03:55:01;;;;;;;5.97;1.33;;;13.70;99.90;;;;;;5074861;28;20211;-82
2022/09/17 03:57:27;;;;;;;5.68;1.17;;;13.70;99.90;;;;;;5078108;28;20240;-82
2022/09/17 03:59:52;;;;;;;6.73;1.13;;;13.80;99.90;;;;;;5076857;28;20188;-82
2022/09/17 04:02:18;;;;;;;5.97;1.00;;;13.80;99.90;;;;;;5076878;28;20203;-82
2022/09/17 04:04:44;;;;;;;3.30;1.20;;;13.80;99.90;;;;;;5077125;28;20177;-82
2022/09/17 04:07:10;;;;;;;4.47;1.33;;;13.80;99.90;;;;;;5075689;28;20169;-82
2022/09/17 04:09:35;;;;;;;5.60;1.20;;;13.80;99.90;;;;;;5076563;28;20173;-82
2022/09/17 04:12:02;;;;;;;3.50;0.93;;;13.80;99.90;;;;;;5077268;28;20165;-82
2022/09/17 04:14:27;;;;;;;6.93;1.43;;;13.90;99.90;;;;;;5076709;28;20184;-82
2022/09/17 04:16:53;;;;;;;3.60;1.10;;;13.90;99.90;;;;;;5069005;28;20622;-82
2022/09/17 04:19:19;;;;;;;3.10;1.00;;;13.90;99.90;;;;;;5063180;28;20181;-82
2022/09/17 04:21:44;;;;;;;5.60;1.40;;;13.90;99.90;;;;;;5066383;28;20161;-82
2022/09/17 04:24:10;;;;;;;6.03;1.47;;;13.90;99.90;;;;;;5077890;28;20215;-82
2022/09/17 04:26:36;;;;;;;7.93;1.23;;;13.90;99.90;;;;;;5078009;28;20168;-82
2022/09/17 04:29:02;;;;;;;3.47;1.10;;;13.90;99.90;;;;;;5077800;28;20172;-82
2022/09/17 04:31:28;;;;;;;6.70;2.70;;;13.90;99.90;;;;;;5078435;28;20196;-82
2022/09/17 04:33:54;;;;;;;4.47;1.13;;;13.90;99.90;;;;;;5076060;28;20666;-82
2022/09/17 04:36:19;;;;;;;3.33;1.00;;;13.90;99.90;;;;;;5074908;28;20256;-82
2022/09/17 04:38:48;;;;;;;4.30;2.10;;;13.80;99.90;;;;;;5068234;28;20181;-82
2022/09/17 04:41:14;;;;;;;5.68;1.00;;;13.80;99.90;;;;;;5061235;28;20252;-82
2022/09/17 04:43:40;;;;;;;4.60;1.00;;;13.80;99.90;;;;;;5063928;28;20165;-83
2022/09/17 04:46:05;;;;;;;6.10;0.90;;;13.80;99.90;;;;;;5089480;22;20285;-82
2022/09/17 04:48:31;;;;;;;6.07;1.27;;;13.70;99.90;;;;;;5020288;28;20193;-83
2022/09/17 04:50:57;;;;;;;5.93;1.10;;;13.70;99.90;;;;;;5051597;28;20205;-82
2022/09/17 04:53:23;;;;;;;10.87;1.83;;;13.70;99.90;;;;;;5073357;28;20211;-83
2022/09/17 04:55:48;;;;;;;5.95;1.33;;;13.70;99.90;;;;;;5057739;28;20208;-82
2022/09/17 04:58:14;;;;;;;4.50;1.40;;;13.70;99.90;;;;;;5052704;28;20179;-83
2022/09/17 05:00:41;;;;;;;7.87;1.00;;;13.60;99.90;;;;;;5057334;28;20177;-82
2022/09/17 05:03:07;;;;;;;6.90;0.98;;;13.60;99.90;;;;;;5059537;28;20177;-83
2022/09/17 05:05:33;;;;;;;9.00;1.63;;;13.60;99.90;;;;;;5063976;28;20181;-83
2022/09/17 05:07:59;;;;;;;7.97;1.30;;;13.60;99.90;;;;;;5059750;28;20177;-83
2022/09/17 05:10:25;;;;;;;5.00;1.13;;;13.60;99.90;;;;;;5063768;28;20530;-82
2022/09/17 05:12:52;;;;;;;7.35;1.23;;;13.50;99.90;;;;;;5065855;28;20181;-82
2022/09/17 05:15:19;;;;;;;4.72;1.00;;;13.50;99.90;;;;;;5064076;28;20204;-82
2022/09/17 05:17:45;;;;;;;4.70;1.38;;;13.50;99.90;;;;;;5061985;28;20192;-82
2022/09/17 05:20:12;;;;;;;5.30;1.00;;;13.50;99.90;;;;;;5056055;28;20169;-82
2022/09/17 05:22:52;;;;;;;4.30;1.10;;;13.50;99.90;;;;;;5060501;28;20552;-83
2022/09/17 05:25:23;;;;;;;8.43;1.30;;;13.50;99.90;;;;;;5076906;28;20228;-83
2022/09/17 05:27:51;;;;;;;4.20;1.00;;;13.50;99.90;;;;;;5074738;28;20189;-83
2022/09/17 05:30:17;;;;;;;6.10;1.30;;;13.50;99.90;;;;;;5074002;28;20173;-83
2022/09/17 05:32:42;;;;;;;5.13;1.35;;;13.50;99.90;;;;;;5075454;28;20173;-82
2022/09/17 05:35:09;;;;;;;2.40;0.80;;;13.50;99.90;;;;;;5076434;28;20234;-82
2022/09/17 05:37:36;;;;;;;6.07;1.23;;;13.50;99.90;;;;;;5076150;28;20242;-82
2022/09/17 05:40:04;;;;;;;4.05;0.88;;;13.50;99.90;;;;;;5068306;28;20294;-83
2022/09/17 05:42:30;;;;;;;8.45;1.30;;;13.50;99.90;;;;;;5071320;28;20571;-82
2022/09/17 05:44:56;;;;;;;5.60;1.27;;;13.50;99.90;;;;;;5074537;28;20177;-82
2022/09/17 05:47:21;;;;;;;6.33;1.20;;;13.50;99.90;;;;;;5090517;28;20216;-82
2022/09/17 05:49:49;;;;;;;3.57;1.10;;;13.40;99.90;;;;;;5094293;28;20175;-83
2022/09/17 05:52:15;;;;;;;7.55;1.05;;;13.40;99.90;;;;;;5094797;28;20176;-82
2022/09/17 05:54:41;;;;;;;8.80;1.00;;;13.40;99.90;;;;;;5077545;28;20176;-82
2022/09/17 05:57:07;;;;;;;3.65;1.35;;;13.40;99.90;;;;;;5077763;28;20778;-82
2022/09/17 05:59:33;;;;;;;7.70;1.53;;;13.50;99.90;;;;;;5094481;28;20167;-82
2022/09/17 06:01:58;;;;;;;3.93;0.90;;;13.50;99.90;;;;;;5077205;28;20164;-82
2022/09/17 06:04:24;;;;;;;4.60;1.00;;;13.60;99.90;;;;;;5076415;28;20179;-82
2022/09/17 06:06:50;;;;;;;6.53;2.00;;;13.70;99.90;;;;;;5083430;28;21150;-82
2022/09/17 06:09:15;;;;;;;3.93;1.00;;;13.80;99.90;;;;;;5085383;28;20172;-82
2022/09/17 06:11:41;;;;;;;4.80;0.90;;;13.80;99.90;;;;;;5084700;28;20180;-82
2022/09/17 06:14:08;;;;;;;5.13;1.10;;;13.90;99.90;;;;;;5072639;28;20188;-82
2022/09/17 06:16:34;;;;;;;5.32;1.00;;;14.00;99.90;;;;;;5031990;28;20208;-82
2022/09/17 06:19:00;;;;;;;6.17;1.00;;;14.10;99.90;;;;;;5047472;28;20548;-81
2022/09/17 06:21:26;;;;;;;3.97;0.70;;;14.20;99.90;;;;;;5038199;28;20197;-81
2022/09/17 06:23:52;;;;;;;7.67;1.67;;;14.30;99.90;;;;;;5035700;28;20930;-82
2022/09/17 06:26:17;;;;;;;4.13;1.00;;;14.50;99.90;;;;;;5033702;28;20280;-82
2022/09/17 06:28:44;;;;;;;4.90;1.10;;;14.70;99.90;;;;;;5033683;28;20170;-83
2022/09/17 06:31:11;;;;;;;5.67;1.00;;;14.90;99.90;;;;;;5033162;28;20176;-83
2022/09/17 06:33:37;;;;;;;6.43;1.20;;;15.10;99.90;;;;;;5045482;28;20595;-83
2022/09/17 06:36:06;;;;;;;5.83;1.10;;;15.30;99.90;;;;;;5027760;28;20643;-82
2022/09/17 06:38:33;;;;;;;2.90;0.80;;;15.40;99.90;;;;;;5040704;28;20661;-82
2022/09/17 06:40:59;;;;;;;5.00;1.13;;;15.60;99.90;;;;;;5036718;28;20568;-82
2022/09/17 06:43:25;;;;;;;4.30;1.10;;;15.80;99.90;;;;;;5040080;28;20568;-82
2022/09/17 06:45:56;;;;;;;3.03;1.57;;;15.90;99.90;;;;;;5035824;28;20627;-83
2022/09/17 06:48:23;;;;;;;3.50;1.00;;;16.00;99.90;;;;;;5039501;28;20579;-82
2022/09/17 06:50:50;;;;;;;5.63;1.63;;;16.10;99.90;;;;;;5038877;28;21134;-82
2022/09/17 06:53:16;;;;;;;4.37;1.00;;;16.20;99.90;;;;;;5061284;28;20567;-82
2022/09/17 06:55:42;;;;;;;2.77;0.70;;;16.20;99.90;;;;;;5032425;28;20773;-82
2022/09/17 06:58:08;;;;;;;4.73;1.10;;;16.10;99.90;;;;;;5061818;28;20595;-83
2022/09/17 07:00:35;;;;;;;6.00;1.10;;;16.10;99.90;;;;;;5058338;28;20580;-82
2022/09/17 07:03:01;;;;;;;5.30;0.80;;;16.10;99.90;;;;;;5057752;28;20962;-81
2022/09/17 07:05:28;;;;;;;3.83;0.90;;;16.00;99.90;;;;;;5039356;28;20587;-82
2022/09/17 07:07:55;;;;;;;5.00;1.00;;;16.00;99.90;;;;;;5059122;28;21699;-81
2022/09/17 07:10:25;;;;;;;4.03;1.20;;;15.90;99.90;;;;;;5062543;28;20579;-82
2022/09/17 07:12:52;;;;;;;4.40;0.83;;;15.90;99.90;;;;;;5053703;28;20627;-82
2022/09/17 07:15:18;;;;;;;3.10;0.77;;;15.70;99.90;;;;;;5057889;28;20634;-83
2022/09/17 07:17:44;;;;;;;7.13;0.90;;;15.70;99.90;;;;;;5062271;28;20616;-83
2022/09/17 07:20:10;;;;;;;3.00;1.13;;;15.80;99.90;;;;;;5055147;28;20579;-83
2022/09/17 07:22:36;;;;;;;4.87;0.70;;;15.80;99.90;;;;;;5027856;28;20298;-82
2022/09/17 07:25:02;;;;;;;3.73;1.00;;;15.90;99.90;;;;;;5065985;28;20687;-82
2022/09/17 07:27:30;;;;;;;3.70;1.10;;;16.00;99.90;;;;;;5035003;28;20192;-82
2022/09/17 07:29:56;;;;;;;4.83;0.80;;;16.10;99.90;;;;;;5057730;28;20591;-82
2022/09/17 07:32:22;;;;;;;5.90;1.03;;;16.30;99.90;;;;;;5044142;28;20615;-82
2022/09/17 07:34:48;;;;;;;4.63;1.00;;;16.40;99.90;;;;;;5057760;28;20614;-82
2022/09/17 07:37:15;;;;;;;6.40;1.03;;;16.60;99.90;;;;;;5047526;28;20638;-81
2022/09/17 07:39:41;;;;;;;3.90;0.80;;;16.60;99.90;;;;;;5057570;28;20176;-82
2022/09/17 07:42:10;;;;;;;5.13;1.00;;;16.70;99.90;;;;;;5039130;28;20602;-81
2022/09/17 07:44:36;;;;;;;2.53;0.90;;;16.70;99.90;;;;;;5061536;28;20637;-82
2022/09/17 07:47:02;;;;;;;4.77;0.90;;;16.80;99.90;;;;;;5058602;28;20623;-81
2022/09/17 07:49:28;;;;;;;5.80;1.10;;;16.80;99.90;;;;;;5044900;28;20666;-82
2022/09/17 07:51:54;;;;;;;5.20;1.07;;;16.90;99.90;;;;;;5043671;28;20619;-82
2022/09/17 07:54:19;;;;;;;3.27;1.10;;;17.20;99.90;;;;;;5065350;28;20184;-80
2022/09/17 07:56:45;;;;;;;3.47;0.90;;;17.60;99.90;;;;;;5057197;28;20273;-77
2022/09/17 07:59:11;;;;;;;3.67;1.23;;;18.20;99.90;;;;;;5053597;28;20547;-77
2022/09/17 08:01:37;;;;;;;3.10;0.90;;;19.10;99.90;;;;;;5054999;28;20181;-76
2022/09/17 08:04:03;;;;;;;5.93;1.00;;;20.10;99.90;;;;;;5055003;28;20188;-76
2022/09/17 08:06:29;;;;;;;4.03;0.97;;;20.80;99.90;;;;;;5054545;28;20185;-76
2022/09/17 08:08:57;;;;;;;3.47;0.80;;;21.50;99.90;;;;;;5054932;28;20559;-78
2022/09/17 08:11:25;;;;;;;2.90;0.67;;;22.20;99.90;;;;;;5054746;28;20578;-76
2022/09/17 08:13:53;;;;;;;4.13;0.80;;;23.10;99.90;;;;;;5054367;28;20583;-76
2022/09/17 08:16:20;;;;;;;4.37;2.70;;;24.00;99.90;;;;;;5054114;28;20647;-75
2022/09/17 08:18:47;;;;;;;7.33;1.30;;;25.00;99.90;;;;;;5036718;28;20571;-75
2022/09/17 08:21:15;;;;;;;2.90;1.00;;;25.70;99.90;;;;;;5054702;28;20966;-76
2022/09/17 08:23:42;;;;;;;4.03;0.90;;;26.50;99.90;;;;;;5054368;28;20575;-76
2022/09/17 08:26:20;;;;;;;3.23;0.73;;;27.10;99.90;;;;;;5054822;28;20707;-76
2022/09/17 08:28:48;;;;;;;4.70;1.47;;;27.20;96.80;;;;;;5055076;28;20559;-76
2022/09/17 08:31:16;;;;;;;4.53;0.87;;;26.90;96.90;;;;;;5021790;28;20997;-77
2022/09/17 08:33:42;;;;;;;4.67;0.80;;;26.60;95.90;;;;;;5053092;28;20595;-75
2022/09/17 08:36:11;;;;;;;3.17;0.70;;;26.10;94.40;;;;;;5051400;28;20715;-76
2022/09/17 08:38:37;;;;;;;2.40;0.80;;;25.70;94.50;;;;;;5034545;28;20591;-75
2022/09/17 08:41:09;;;;;;;3.60;0.80;;;25.40;94.90;;;;;;5035127;28;20599;-75
2022/09/17 08:44:07;;;;;;;3.10;1.33;;;25.60;95.10;;;;;;5051223;28;20572;-76
2022/09/17 08:46:47;;;;;;;5.33;1.10;;;26.10;94.40;;;;;;5053009;28;20627;-75
2022/09/17 08:49:23;;;;;;;2.23;0.77;;;26.50;91.70;;;;;;5052573;28;20606;-75
2022/09/17 08:52:14;;;;;;;4.57;1.33;;;27.00;95.50;;;;;;5054581;28;21048;-75
2022/09/17 08:54:43;;;;;;;3.70;0.90;;;27.30;93.20;;;;;;5054766;28;20565;-76
2022/09/17 08:57:50;;;;;;;2.70;0.80;;;27.30;91.30;;;;;;5054196;28;20987;-76
2022/09/17 09:00:19;;;;;;;2.50;1.00;;;27.30;90.00;;;;;;5054310;28;20585;-76
2022/09/17 09:03:22;;;;;;;4.80;1.00;;;27.10;89.40;;;;;;5054343;28;21176;-76
2022/09/17 09:05:51;;;;;;;5.13;1.10;;;26.90;87.20;;;;;;5057617;28;20589;-76
2022/09/17 09:08:17;;;;;;;5.97;1.00;;;26.50;83.60;;;;;;5043508;28;20638;-77
2022/09/17 09:10:54;;;;;;;3.97;0.80;;;25.90;84.20;;;;;;5034903;28;20565;-76
2022/09/17 09:13:24;;;;;;;2.73;1.00;;;25.40;83.40;;;;;;5033605;28;20598;-76
2022/09/17 09:16:05;;;;;;;3.07;0.90;;;25.30;88.10;;;;;;5016846;28;20632;-75
2022/09/17 09:18:35;;;;;;;4.80;2.13;;;25.80;89.70;;;;;;5040020;28;20583;-76
2022/09/17 09:21:21;;;;;;;3.60;1.20;;;25.80;84.80;;;;;;5053366;28;20578;-77
2022/09/17 09:23:53;;;;;;;5.00;1.43;;;25.50;85.00;;;;;;5053378;28;20574;-76
2022/09/17 09:26:44;;;;;;;3.33;1.13;;;25.10;81.70;;;;;;5053078;28;20615;-76
2022/09/17 09:29:16;;;;;;;3.37;1.00;;;24.80;82.20;;;;;;5053194;28;20564;-76
2022/09/17 09:32:14;;;;;;;2.30;0.80;;;24.70;83.20;;;;;;5053308;28;20571;-75
2022/09/17 09:34:41;;;;;;;3.20;1.03;;;24.30;81.40;;;;;;5052991;28;20563;-76
2022/09/17 09:37:30;;;;;;;3.37;1.07;;;23.70;79.90;;;;;;5053034;28;20591;-75
2022/09/17 09:40:03;;;;;;;4.93;1.20;;;23.20;79.80;;;;;;5018724;28;20657;-76
2022/09/17 09:42:33;;;;;;;3.60;0.90;;;22.70;80.70;;;;;;5053029;28;20568;-76
2022/09/17 09:45:05;;;;;;;2.27;0.90;;;22.90;85.10;;;;;;5052945;28;21157;-76
2022/09/17 09:47:48;;;;;;;2.87;1.40;;;23.40;88.90;;;;;;5052602;28;20603;-76
2022/09/17 09:50:44;;;;;;;3.23;0.97;;;24.10;87.20;;;;;;5052708;28;20563;-76
2022/09/17 09:53:38;;;;;;;3.40;1.40;;;24.50;85.80;;;;;;5052710;28;20624;-76
2022/09/17 09:56:29;;;;;;;5.03;1.47;;;24.80;83.80;;;;;;5051319;28;20730;-76
2022/09/17 09:58:55;;;;;;;7.00;1.50;;;25.10;82.40;;;;;;5051348;28;20675;-76
2022/09/17 10:01:21;;;;;;;2.17;0.90;;;25.30;82.50;;;;;;5052354;28;20591;-77
2022/09/17 10:03:50;;;;;;;3.70;0.90;;;25.20;80.30;;;;;;5052567;28;20987;-77
2022/09/17 10:06:18;;;;;;;4.43;0.70;;;25.40;80.80;;;;;;5052378;28;20621;-76
2022/09/17 10:08:56;;;;;;;3.97;1.27;;;25.50;79.30;;;;;;5052138;28;20580;-77
2022/09/17 10:11:25;;;;;;;3.03;0.90;;;25.20;75.80;;;;;;5051282;28;20556;-76
2022/09/17 10:13:51;;;;;;;2.60;1.40;;;24.80;75.30;;;;;;5052343;28;20551;-77
2022/09/17 10:16:25;;;;;;;3.27;1.00;;;24.60;76.00;;;;;;5051052;28;20634;-77
2022/09/17 10:19:06;;;;;;;4.00;1.13;;;24.60;75.60;;;;;;5052250;28;20563;-77
2022/09/17 10:21:41;;;;;;;3.20;0.80;;;24.90;73.50;;;;;;5052136;28;20564;-76
2022/09/17 10:24:27;;;;;;;4.10;1.90;;;25.20;75.80;;;;;;5034431;28;20568;-76
2022/09/17 10:27:02;;;;;;;6.13;2.03;;;25.40;74.90;;;;;;5050795;28;20990;-74
2022/09/17 10:29:28;;;;;;;4.53;0.90;;;25.60;75.20;;;;;;5051459;28;20551;-77
2022/09/17 10:31:56;;;;;;;3.50;1.20;;;25.60;72.90;;;;;;5034271;28;20567;-78
2022/09/17 10:34:29;;;;;;;2.70;0.80;;;25.60;72.20;;;;;;5052043;28;20567;-77
2022/09/17 10:36:56;;;;;;;2.03;0.70;;;25.70;72.20;;;;;;5052093;28;20620;-75
2022/09/17 10:39:47;;;;;;;2.80;1.10;;;25.90;72.50;;;;;;5051155;28;20576;-76
2022/09/17 10:42:18;;;;;;;2.27;1.00;;;26.10;72.80;;;;;;5035377;28;21196;-77
2022/09/17 10:44:55;;;;;;;2.27;0.93;;;26.40;70.40;;;;;;5053212;28;20567;-77
2022/09/17 10:47:35;;;;;;;2.90;0.80;;;26.50;69.50;;;;;;5053729;28;20611;-76
2022/09/17 10:50:15;;;;;;;2.63;0.73;;;26.40;67.90;;;;;;5052253;28;21175;-77
2022/09/17 10:52:47;;;;;;;2.43;0.90;;;26.60;69.60;;;;;;5051853;28;20734;-77
2022/09/17 10:55:34;;;;;;;3.80;1.00;;;26.80;69.60;;;;;;5051898;28;20709;-75
2022/09/17 10:58:00;;;;;;;7.70;4.60;;;27.10;70.30;;;;;;5051456;28;20555;-77
2022/09/17 11:00:32;;;;;;;10.90;5.60;;;27.50;69.00;;;;;;5017475;28;21130;-77
2022/09/17 11:03:18;;;;;;;3.60;1.90;;;27.60;66.60;;;;;;5050426;28;20579;-77
2022/09/17 11:06:16;;;;;;;4.67;1.10;;;27.60;65.30;;;;;;5035690;28;20562;-75
2022/09/17 11:09:06;;;;;;;4.23;0.80;;;27.40;64.00;;;;;;5051589;28;20565;-74
2022/09/17 11:12:12;;;;;;;1.70;0.70;;;27.10;64.50;;;;;;5052120;28;20575;-77
2022/09/17 11:14:41;;;;;;;3.27;1.40;;;27.00;66.20;;;;;;5024976;28;20598;-76
2022/09/17 11:17:33;;;;;;;4.07;2.10;;;27.00;65.90;;;;;;5052610;28;20635;-75
2022/09/17 11:20:03;;;;;;;2.17;1.00;;;26.70;64.70;;;;;;5051256;28;20552;-75
2022/09/17 11:22:51;;;;;;;2.77;1.27;;;26.40;61.90;;;;;;5050967;28;20579;-76
2022/09/17 11:25:43;;;;;;;2.80;0.90;;;25.90;61.70;;;;;;5050929;28;20576;-76
2022/09/17 11:28:29;;;;;;;3.60;0.77;;;25.50;61.80;;;;;;5050983;28;20591;-73
2022/09/17 11:31:00;;;;;;;4.47;1.00;;;25.20;61.70;;;;;;5033136;28;20597;-73
2022/09/17 11:33:43;;;;;;;4.73;1.10;;;25.10;63.50;;;;;;5050923;28;20955;-74
2022/09/17 11:36:28;;;;;;;2.80;0.90;;;25.10;64.50;;;;;;5054362;28;20630;-75
2022/09/17 11:39:01;;;;;;;2.17;1.00;;;25.40;65.70;;;;;;5031832;28;20583;-75
2022/09/17 11:41:40;;;;;;;3.90;1.10;;;25.50;65.60;;;;;;5050852;28;20584;-77
2022/09/17 11:44:27;;;;;;;3.60;1.00;;;25.60;64.80;;;;;;5051051;28;20624;-77
2022/09/17 11:47:08;;;;;;;2.90;0.70;;;25.60;64.40;;;;;;5033030;28;20645;-75
2022/09/17 11:49:38;;;;;;;2.37;0.80;;;25.20;60.90;;;;;;5050667;28;20578;-75
2022/09/17 11:52:15;;;;;;;2.20;1.20;;;24.60;60.10;;;;;;5051395;28;20916;-76
2022/09/17 11:54:54;;;;;;;2.27;1.20;;;23.90;59.90;;;;;;5033316;28;20970;-75
2022/09/17 11:57:34;;;;;;;4.33;1.70;;;23.10;61.00;;;;;;5051224;28;21147;-75
2022/09/17 12:00:17;;;;;;;3.60;1.30;;;22.40;63.60;;;;;;5051069;28;20920;-76
2022/09/17 12:03:09;;;;;;;2.70;1.03;;;21.80;64.20;;;;;;5033432;28;20670;-75
2022/09/17 12:05:48;;;;;;;2.53;0.50;;;21.30;66.50;;;;;;5033611;28;20564;-74
2022/09/17 12:08:25;;;;;;;2.10;0.70;;;20.90;68.80;;;;;;5050944;28;20606;-76
2022/09/17 12:11:08;;;;;;;2.77;0.60;;;20.60;68.70;;;;;;5034985;28;20633;-75
2022/09/17 12:13:51;;;;;;;1.50;0.50;;;20.40;70.30;;;;;;5054513;28;20568;-75
2022/09/17 12:16:37;;;;;;;3.13;0.50;;;20.30;71.90;;;;;;5036777;28;20701;-76
2022/09/17 12:19:09;;;;;;;2.63;0.60;;;20.30;72.80;;;;;;5036686;28;20677;-76
2022/09/17 12:21:45;;;;;;;2.37;0.63;;;20.40;74.50;;;;;;5054580;28;20555;-77
2022/09/17 12:24:22;;;;;;;1.80;0.80;;;20.60;75.70;;;;;;5054247;28;21026;-78
2022/09/17 12:26:54;;;;;;;4.73;1.30;;;20.70;75.30;;;;;;5055912;28;20686;-77
2022/09/17 12:30:01;;;;;;;2.30;1.03;;;20.80;76.00;;;;;;5052902;28;20648;-77
2022/09/17 12:32:42;;;;;;;3.03;1.50;;;20.80;74.30;;;;;;5040790;28;20591;-77
2022/09/17 12:35:45;;;;;;;3.20;1.53;;;20.70;73.60;;;;;;5035824;28;21256;-77
2022/09/17 12:38:34;;;;;;;3.70;0.80;;;20.60;72.50;;;;;;5054609;28;20617;-77
2022/09/17 12:41:27;;;;;;;3.80;1.90;;;20.40;72.00;;;;;;5036153;28;20594;-78
2022/09/17 12:44:31;;;;;;;3.97;1.93;;;20.20;71.70;;;;;;5032676;28;20576;-77
2022/09/17 12:46:57;;;;;;;3.70;1.20;;;19.80;71.80;;;;;;5040673;28;20634;-75
2022/09/17 12:49:45;;;;;;;4.90;2.20;;;19.50;71.70;;;;;;5053674;28;20564;-76
2022/09/17 12:52:33;;;;;;;6.20;3.10;;;19.40;72.60;;;;;;5041869;28;20192;-76
2022/09/17 12:55:18;;;;;;;5.03;2.90;;;19.30;73.80;;;;;;5033376;28;20671;-76
2022/09/17 12:58:17;;;;;;;6.60;2.80;;;19.10;74.60;;;;;;5033317;28;20630;-77
2022/09/17 13:00:49;;;;;;;4.47;2.47;;;19.10;77.20;;;;;;5016700;28;21108;-77
2022/09/17 13:03:18;;;;;;;6.87;3.07;;;19.00;77.10;;;;;;5036805;28;20611;-77
2022/09/17 13:06:03;;;;;;;6.43;2.30;;;18.80;78.10;;;;;;5053695;28;20580;-75
2022/09/17 13:08:42;;;;;;;3.87;2.03;;;18.70;82.40;;;;;;5023742;28;20642;-76
2022/09/17 13:11:41;;;;;;;3.67;0.93;;;18.60;82.60;;;;;;5047257;28;21023;-76
2022/09/17 13:14:23;;;;;;;1.87;0.70;;;18.40;83.20;;;;;;5050876;28;20982;-73
2022/09/17 13:17:01;;;;;;;2.30;0.60;;;18.30;85.70;;;;;;5035178;28;21163;-74